Aeroporto :
LOGIN :

Iscrizione | Disclaimer

   EN    FR    IT 

 










Sommario :    VFR   VFR Marginale   IFR   IFR Intensivo   IFR Molto Intensivo
Visibilità : 
Base nubi : 
>= 8 km
>= 3000ft
5 / 8 km
1000 / 3000 ft
1500m / 5 km
500 / 1000 ft
800 / 1500m
200 / 500 ft
< 800m
< 200 ft
Simboli :   Temporali  Nebbia  Neve Forte  Precipitazioni Forti  Vento > 20 kt
SIGMETs :   Varie  Temporali  Ghiacco  Turbolenza  Onda orograficha  Ceneri Vulcaniche






- Altitudine del aeroporto : 204 ft
- Codice IATA : AGF


LFBA - Agen

ULTIMO METAR :
  • 121030Z AUTO 25007KT 210V300 9999 BKN011 BKN016 BKN074 12/10 Q1012 TEMPO 4000 SHRA BKN010 BKN020TCU

METARs OBSOLETI :
  • 121000Z AUTO 26007KT 230V290 9999 BKN010 BKN030 BKN040 11/09 Q1012 TEMPO 4000 SHRA BKN010 BKN020TCU
  • 120930Z AUTO 30005KT 230V340 9999 BKN010/// BKN034/// BKN048/// ///TCU 10/09 Q1013 TEMPO 4000 SHRA SCT010 BKN020TCU
  • 120900Z AUTO 24007KT 200V290 9999 FEW042/// OVC060/// ///TCU 10/08 Q1012 TEMPO 4000 SHRA
  • 120830Z AUTO 23008KT 200V260 9999 FEW038/// OVC062/// ///TCU 09/08 Q1013 TEMPO 4000 SHRA
  • 120800Z AUTO 27005KT 240V300 9999 FEW009/// SCT026/// BKN033/// ///TCU 08/07 Q1013 TEMPO 4000 SHRA

TAF AMD TAF LFBA
Valido dal 12 a 09 ore il 12 a 18 ore UTC


120936Z 1209/1218 28008KT 9999 BKN030
PROB40
TEMPO 1209/1218 4000 SHRA BKN010 BKN020TCU



MetMap, La meteo Aeronautica in un colpo d'occhio ! - Copyright ORBIFLY Dicembre 2007 - Disclaimer

ORBIFLY MET'MAP TEAM :

Programmazione e sviluppo : Alexandra Zaïnal
Concezione e sviluppo : Baudouin d'Aumeries
Co-Programmazione e sviluppo : Marc-Olivier Méhu
Supporto tecnico e logistico : Manuel Goepfert
Aiuto per la traduzione : Arnaldo La Scala

Contatto : metmap@orbifly.com




FONTI E CREDITI :

   NOAA